Bo Airport

Jump to: basic info | weather | comments

Related pages: nearby airports | nearby navaids | notams | map

Basic information (top)

Codes: KBS GFBO
Location: lon 7.944400, lat -11.761000, elev 328 ft / 100 m msl
Status: medium_airport
Scheduled airline service: yes
Links: Wikipedia Mobile

Weather (top)

Current conditions for Lungi International Airport 94nm (175km) WNW (rec'd 2014/07/24 10:00Z):

GFLL 241000Z 15006KT 9999 BKN011 FEW027CB 26/23 Q1016 RMK CB-NE

Airport forecast for Lungi International Airport 94nm (175km) WNW (rec'd 2014/07/24 06:00Z):

TAF GFLL 240400Z 2406/2512 11005KT 9999 BKN012 FEW027CB 
      TEMPO 2409/2415 23009KT BKN014 PROB30 
      TEMPO 2418/2500 30010KT 5000 TSRA BKN006 FEW025CB 
      BECMG 2501/2503 08006KT 6000 RA BKN008

Latest comments (top)

No comments yet for Bo Airport

More... (top)

See also NOTAMs and nearby airports and navaids, or visit the Bo Airport page at the main OurAirports website..